sensor_id;sensor_type;location;lat;lon;timestamp;temperature;humidity
1091;DHT22;534;48.704;9.122;2023-03-13T04:01:11;10.60;81.60
1091;DHT22;534;48.704;9.122;2023-03-13T04:03:37;10.60;82.10
1091;DHT22;534;48.704;9.122;2023-03-13T04:06:04;10.60;82.30
1091;DHT22;534;48.704;9.122;2023-03-13T04:08:31;10.80;82.20
1091;DHT22;534;48.704;9.122;2023-03-13T04:10:59;10.90;82.70
1091;DHT22;534;48.704;9.122;2023-03-13T04:13:27;10.90;83.50
1091;DHT22;534;48.704;9.122;2023-03-13T04:15:54;10.90;84.40
1091;DHT22;534;48.704;9.122;2023-03-13T04:18:22;11.00;84.40
1091;DHT22;534;48.704;9.122;2023-03-13T04:20:48;11.00;84.70
1091;DHT22;534;48.704;9.122;2023-03-13T04:23:15;11.10;84.90
1091;DHT22;534;48.704;9.122;2023-03-13T04:25:42;11.10;85.20
1091;DHT22;534;48.704;9.122;2023-03-13T04:28:08;11.10;85.40
1091;DHT22;534;48.704;9.122;2023-03-13T04:30:35;11.20;85.20
1091;DHT22;534;48.704;9.122;2023-03-13T04:33:02;11.30;85.30
1091;DHT22;534;48.704;9.122;2023-03-13T04:35:30;11.30;85.40
1091;DHT22;534;48.704;9.122;2023-03-13T04:37:57;11.20;85.80
1091;DHT22;534;48.704;9.122;2023-03-13T04:40:25;11.20;86.00
1091;DHT22;534;48.704;9.122;2023-03-13T04:42:52;11.20;86.10
1091;DHT22;534;48.704;9.122;2023-03-13T04:45:18;11.30;86.00
1091;DHT22;534;48.704;9.122;2023-03-13T04:47:45;11.20;86.10
1091;DHT22;534;48.704;9.122;2023-03-13T04:50:12;11.30;86.20
1091;DHT22;534;48.704;9.122;2023-03-13T04:52:40;11.20;86.30
1091;DHT22;534;48.704;9.122;2023-03-13T04:55:08;11.30;86.30
1091;DHT22;534;48.704;9.122;2023-03-13T04:57:34;11.30;86.20
1091;DHT22;534;48.704;9.122;2023-03-13T05:00:01;11.30;86.50
1091;DHT22;534;48.704;9.122;2023-03-13T05:02:29;11.30;86.40
1091;DHT22;534;48.704;9.122;2023-03-13T05:04:56;11.30;86.50
1091;DHT22;534;48.704;9.122;2023-03-13T05:07:23;11.30;86.50
1091;DHT22;534;48.704;9.122;2023-03-13T05:09:51;11.30;86.70
1091;DHT22;534;48.704;9.122;2023-03-13T05:12:17;11.30;86.80
1091;DHT22;534;48.704;9.122;2023-03-13T05:14:44;11.30;86.80
1091;DHT22;534;48.704;9.122;2023-03-13T05:17:11;11.30;86.70
1091;DHT22;534;48.704;9.122;2023-03-13T05:19:38;11.20;86.70
1091;DHT22;534;48.704;9.122;2023-03-13T05:22:05;11.20;87.00
1091;DHT22;534;48.704;9.122;2023-03-13T05:24:32;11.20;86.80
1091;DHT22;534;48.704;9.122;2023-03-13T05:27:00;11.20;86.70
1091;DHT22;534;48.704;9.122;2023-03-13T05:29:27;11.20;86.90
1091;DHT22;534;48.704;9.122;2023-03-13T05:31:53;11.30;86.50
1091;DHT22;534;48.704;9.122;2023-03-13T05:34:20;11.30;86.10
1091;DHT22;534;48.704;9.122;2023-03-13T05:36:47;11.40;86.00
1091;DHT22;534;48.704;9.122;2023-03-13T05:39:13;11.30;86.10
1091;DHT22;534;48.704;9.122;2023-03-13T05:41:40;11.30;86.00
1091;DHT22;534;48.704;9.122;2023-03-13T05:44:08;11.40;85.80
1091;DHT22;534;48.704;9.122;2023-03-13T05:46:35;11.40;85.60
1091;DHT22;534;48.704;9.122;2023-03-13T05:49:02;11.50;85.50
1091;DHT22;534;48.704;9.122;2023-03-13T05:51:28;11.50;85.20
1091;DHT22;534;48.704;9.122;2023-03-13T05:53:55;11.60;85.30
1091;DHT22;534;48.704;9.122;2023-03-13T05:56:22;11.60;85.20
1091;DHT22;534;48.704;9.122;2023-03-13T05:58:48;11.60;85.40
1091;DHT22;534;48.704;9.122;2023-03-13T06:01:17;11.60;84.90
1091;DHT22;534;48.704;9.122;2023-03-13T06:03:43;11.60;84.90
1091;DHT22;534;48.704;9.122;2023-03-13T06:06:10;11.60;84.90
1091;DHT22;534;48.704;9.122;2023-03-13T06:08:36;11.70;84.90
1091;DHT22;534;48.704;9.122;2023-03-13T06:11:03;11.70;84.70
1091;DHT22;534;48.704;9.122;2023-03-13T06:13:30;11.70;84.80
1091;DHT22;534;48.704;9.122;2023-03-13T06:15:57;11.80;86.20
1091;DHT22;534;48.704;9.122;2023-03-13T06:18:26;12.10;84.90
1091;DHT22;534;48.704;9.122;2023-03-13T06:20:56;12.20;83.50
1091;DHT22;534;48.704;9.122;2023-03-13T06:23:23;12.20;83.40
1091;DHT22;534;48.704;9.122;2023-03-13T06:25:50;12.10;84.00
1091;DHT22;534;48.704;9.122;2023-03-13T06:28:17;12.00;84.20
1091;DHT22;534;48.704;9.122;2023-03-13T06:30:43;12.10;84.10
1091;DHT22;534;48.704;9.122;2023-03-13T06:33:10;12.00;84.40
1091;DHT22;534;48.704;9.122;2023-03-13T06:35:40;12.10;84.40
1091;DHT22;534;48.704;9.122;2023-03-13T06:38:08;12.20;84.30
1091;DHT22;534;48.704;9.122;2023-03-13T06:40:35;12.20;84.40
1091;DHT22;534;48.704;9.122;2023-03-13T06:43:02;12.20;84.50
1091;DHT22;534;48.704;9.122;2023-03-13T06:45:28;12.20;84.30
1091;DHT22;534;48.704;9.122;2023-03-13T06:47:55;12.20;84.30
1091;DHT22;534;48.704;9.122;2023-03-13T06:50:22;12.20;84.30
1091;DHT22;534;48.704;9.122;2023-03-13T06:52:50;12.20;84.30
1091;DHT22;534;48.704;9.122;2023-03-13T06:55:17;12.10;84.60
1091;DHT22;534;48.704;9.122;2023-03-13T06:57:48;12.10;84.60
1091;DHT22;534;48.704;9.122;2023-03-13T07:00:15;12.10;84.80
1091;DHT22;534;48.704;9.122;2023-03-13T07:02:42;12.20;84.80
1091;DHT22;534;48.704;9.122;2023-03-13T07:05:08;12.20;84.50
1091;DHT22;534;48.704;9.122;2023-03-13T07:07:35;12.20;84.80
1091;DHT22;534;48.704;9.122;2023-03-13T07:10:04;12.20;85.00
1091;DHT22;534;48.704;9.122;2023-03-13T07:12:31;12.20;84.90
1091;DHT22;534;48.704;9.122;2023-03-13T07:14:57;12.20;84.90
1091;DHT22;534;48.704;9.122;2023-03-13T07:17:24;12.20;84.90
1091;DHT22;534;48.704;9.122;2023-03-13T07:19:51;12.30;85.00
1091;DHT22;534;48.704;9.122;2023-03-13T07:22:18;12.30;85.00
1091;DHT22;534;48.704;9.122;2023-03-13T07:24:44;12.40;84.60
1091;DHT22;534;48.704;9.122;2023-03-13T07:27:12;12.50;84.60
1091;DHT22;534;48.704;9.122;2023-03-13T07:29:41;12.40;84.80
1091;DHT22;534;48.704;9.122;2023-03-13T07:32:08;12.40;84.90
1091;DHT22;534;48.704;9.122;2023-03-13T07:34:35;12.50;84.80
1091;DHT22;534;48.704;9.122;2023-03-13T07:37:01;12.50;84.90
1091;DHT22;534;48.704;9.122;2023-03-13T07:39:28;12.50;84.60
1091;DHT22;534;48.704;9.122;2023-03-13T07:41:55;12.50;84.70
1091;DHT22;534;48.704;9.122;2023-03-13T07:44:23;12.50;84.60
1091;DHT22;534;48.704;9.122;2023-03-13T07:46:49;12.40;85.10
1091;DHT22;534;48.704;9.122;2023-03-13T07:49:16;12.40;85.30
1091;DHT22;534;48.704;9.122;2023-03-13T07:51:43;12.40;85.60
1091;DHT22;534;48.704;9.122;2023-03-13T07:54:12;12.40;85.50
1091;DHT22;534;48.704;9.122;2023-03-13T07:56:39;12.30;85.60
1091;DHT22;534;48.704;9.122;2023-03-13T07:59:06;12.30;85.50
1091;DHT22;534;48.704;9.122;2023-03-13T08:01:34;12.40;85.60
1091;DHT22;534;48.704;9.122;2023-03-13T08:04:01;12.50;85.30
1091;DHT22;534;48.704;9.122;2023-03-13T08:06:30;12.50;85.10
1091;DHT22;534;48.704;9.122;2023-03-13T08:08:57;12.70;84.80
1091;DHT22;534;48.704;9.122;2023-03-13T08:11:26;12.80;84.50
1091;DHT22;534;48.704;9.122;2023-03-13T08:13:54;12.80;84.10
1091;DHT22;534;48.704;9.122;2023-03-13T08:16:22;12.90;84.20
1091;DHT22;534;48.704;9.122;2023-03-13T08:18:52;13.00;83.60
1091;DHT22;534;48.704;9.122;2023-03-13T08:21:21;13.00;83.60
1091;DHT22;534;48.704;9.122;2023-03-13T08:23:52;12.90;83.50
1091;DHT22;534;48.704;9.122;2023-03-13T08:26:20;13.00;83.70
1091;DHT22;534;48.704;9.122;2023-03-13T08:28:51;13.10;83.60
1091;DHT22;534;48.704;9.122;2023-03-13T08:31:22;13.20;83.30
1091;DHT22;534;48.704;9.122;2023-03-13T08:33:50;13.30;83.00
1091;DHT22;534;48.704;9.122;2023-03-13T08:36:18;13.30;82.70
1091;DHT22;534;48.704;9.122;2023-03-13T08:38:48;13.50;82.50
1091;DHT22;534;48.704;9.122;2023-03-13T08:41:16;13.60;81.80
1091;DHT22;534;48.704;9.122;2023-03-13T08:43:43;13.60;81.60
1091;DHT22;534;48.704;9.122;2023-03-13T08:46:10;13.70;81.40
1091;DHT22;534;48.704;9.122;2023-03-13T08:48:37;13.70;81.00
1091;DHT22;534;48.704;9.122;2023-03-13T08:51:08;13.60;81.30
1091;DHT22;534;48.704;9.122;2023-03-13T08:53:36;13.70;81.60
1091;DHT22;534;48.704;9.122;2023-03-13T08:56:04;13.70;80.70
1091;DHT22;534;48.704;9.122;2023-03-13T08:58:31;13.70;80.90
1091;DHT22;534;48.704;9.122;2023-03-13T09:01:01;13.70;80.60
1091;DHT22;534;48.704;9.122;2023-03-13T09:03:28;13.80;80.70
1091;DHT22;534;48.704;9.122;2023-03-13T09:05:55;13.80;80.60
1091;DHT22;534;48.704;9.122;2023-03-13T09:08:23;14.00;80.40
1091;DHT22;534;48.704;9.122;2023-03-13T09:10:54;14.10;79.70
1091;DHT22;534;48.704;9.122;2023-03-13T09:13:21;14.00;79.60
1091;DHT22;534;48.704;9.122;2023-03-13T09:15:53;14.10;78.80
1091;DHT22;534;48.704;9.122;2023-03-13T09:18:19;14.20;79.20
1091;DHT22;534;48.704;9.122;2023-03-13T09:20:46;14.30;78.50
1091;DHT22;534;48.704;9.122;2023-03-13T09:23:13;14.20;78.60
1091;DHT22;534;48.704;9.122;2023-03-13T09:25:41;14.10;79.00
1091;DHT22;534;48.704;9.122;2023-03-13T09:28:07;14.30;79.00
1091;DHT22;534;48.704;9.122;2023-03-13T09:30:34;14.30;78.70
1091;DHT22;534;48.704;9.122;2023-03-13T09:33:01;14.30;78.30
1091;DHT22;534;48.704;9.122;2023-03-13T09:35:28;14.30;78.90
1091;DHT22;534;48.704;9.122;2023-03-13T09:37:54;14.50;78.00
1091;DHT22;534;48.704;9.122;2023-03-13T09:40:23;14.50;78.10
1091;DHT22;534;48.704;9.122;2023-03-13T09:42:54;14.70;77.50
1091;DHT22;534;48.704;9.122;2023-03-13T09:45:28;14.80;76.90
1091;DHT22;534;48.704;9.122;2023-03-13T09:48:00;14.80;76.30
1091;DHT22;534;48.704;9.122;2023-03-13T09:50:30;14.90;76.70
1091;DHT22;534;48.704;9.122;2023-03-13T09:53:04;15.00;76.10
1091;DHT22;534;48.704;9.122;2023-03-13T09:55:34;14.90;76.40
1091;DHT22;534;48.704;9.122;2023-03-13T09:58:09;15.00;76.30
1091;DHT22;534;48.704;9.122;2023-03-13T10:00:38;15.20;75.70
1091;DHT22;534;48.704;9.122;2023-03-13T10:03:12;15.40;74.40
1091;DHT22;534;48.704;9.122;2023-03-13T10:05:45;15.50;74.80
1091;DHT22;534;48.704;9.122;2023-03-13T10:08:16;15.80;73.40
1091;DHT22;534;48.704;9.122;2023-03-13T10:10:46;15.80;73.30
1091;DHT22;534;48.704;9.122;2023-03-13T10:13:21;15.80;73.20
1091;DHT22;534;48.704;9.122;2023-03-13T10:18:16;16.10;73.60
1091;DHT22;534;48.704;9.122;2023-03-13T10:20:46;16.20;71.70
1091;DHT22;534;48.704;9.122;2023-03-13T10:23:17;16.30;71.80
1091;DHT22;534;48.704;9.122;2023-03-13T10:25:45;16.50;71.40
1091;DHT22;534;48.704;9.122;2023-03-13T10:28:14;16.30;72.40
1091;DHT22;534;48.704;9.122;2023-03-13T10:30:46;16.40;72.00
1091;DHT22;534;48.704;9.122;2023-03-13T10:33:22;16.40;71.60
1091;DHT22;534;48.704;9.122;2023-03-13T10:36:02;16.40;71.70
1091;DHT22;534;48.704;9.122;2023-03-13T10:38:32;16.60;71.00
1091;DHT22;534;48.704;9.122;2023-03-13T10:41:01;16.80;71.50
1091;DHT22;534;48.704;9.122;2023-03-13T10:43:30;17.00;70.60
1091;DHT22;534;48.704;9.122;2023-03-13T10:45:58;17.00;70.20
1091;DHT22;534;48.704;9.122;2023-03-13T10:48:29;17.00;69.80
1091;DHT22;534;48.704;9.122;2023-03-13T10:51:01;16.90;69.50
1091;DHT22;534;48.704;9.122;2023-03-13T10:53:31;17.00;69.80
1091;DHT22;534;48.704;9.122;2023-03-13T10:56:03;16.80;69.40
1091;DHT22;534;48.704;9.122;2023-03-13T10:58:36;16.70;70.30
1091;DHT22;534;48.704;9.122;2023-03-13T11:01:15;16.60;70.10
1091;DHT22;534;48.704;9.122;2023-03-13T11:03:43;16.50;70.30
1091;DHT22;534;48.704;9.122;2023-03-13T11:06:23;16.60;70.30
1091;DHT22;534;48.704;9.122;2023-03-13T11:08:58;16.60;70.30
1091;DHT22;534;48.704;9.122;2023-03-13T11:11:25;16.80;69.80
1091;DHT22;534;48.704;9.122;2023-03-13T11:14:06;16.80;69.70
1091;DHT22;534;48.704;9.122;2023-03-13T11:16:38;17.00;69.10
1091;DHT22;534;48.704;9.122;2023-03-13T11:19:17;17.20;68.90
1091;DHT22;534;48.704;9.122;2023-03-13T11:21:57;17.10;68.70
1091;DHT22;534;48.704;9.122;2023-03-13T11:24:31;17.20;68.10
1091;DHT22;534;48.704;9.122;2023-03-13T11:27:09;17.20;68.60
1091;DHT22;534;48.704;9.122;2023-03-13T11:29:48;17.20;68.00
1091;DHT22;534;48.704;9.122;2023-03-13T11:32:22;17.40;68.10
1091;DHT22;534;48.704;9.122;2023-03-13T11:34:57;17.30;67.80
1091;DHT22;534;48.704;9.122;2023-03-13T11:37:27;17.50;68.50
1091;DHT22;534;48.704;9.122;2023-03-13T11:40:05;17.80;67.60
1091;DHT22;534;48.704;9.122;2023-03-13T11:45:59;18.40;66.20
1091;DHT22;534;48.704;9.122;2023-03-13T11:48:47;18.50;66.80
1091;DHT22;534;48.704;9.122;2023-03-13T11:51:20;18.70;64.90
1091;DHT22;534;48.704;9.122;2023-03-13T11:56:49;19.00;64.10
1091;DHT22;534;48.704;9.122;2023-03-13T11:59:29;19.30;63.00
1091;DHT22;534;48.704;9.122;2023-03-13T12:02:00;19.40;62.90
1091;DHT22;534;48.704;9.122;2023-03-13T12:04:34;19.70;62.30
1091;DHT22;534;48.704;9.122;2023-03-13T12:07:05;19.70;61.30
1091;DHT22;534;48.704;9.122;2023-03-13T12:09:38;19.90;62.30
1091;DHT22;534;48.704;9.122;2023-03-13T12:12:14;19.90;60.80
1091;DHT22;534;48.704;9.122;2023-03-13T12:14:44;20.10;60.80
1091;DHT22;534;48.704;9.122;2023-03-13T12:17:19;20.40;60.20
1091;DHT22;534;48.704;9.122;2023-03-13T12:19:51;20.70;60.80
1091;DHT22;534;48.704;9.122;2023-03-13T12:22:23;20.90;59.10
1091;DHT22;534;48.704;9.122;2023-03-13T12:24:55;21.00;58.40
1091;DHT22;534;48.704;9.122;2023-03-13T12:27:27;20.90;58.30
1091;DHT22;534;48.704;9.122;2023-03-13T12:30:00;20.90;57.60
1091;DHT22;534;48.704;9.122;2023-03-13T12:32:33;21.00;57.90
1091;DHT22;534;48.704;9.122;2023-03-13T12:35:13;21.20;57.70
1091;DHT22;534;48.704;9.122;2023-03-13T12:37:44;21.30;58.10
1091;DHT22;534;48.704;9.122;2023-03-13T12:40:22;21.60;56.30
1091;DHT22;534;48.704;9.122;2023-03-13T12:42:55;21.50;56.30
1091;DHT22;534;48.704;9.122;2023-03-13T12:45:24;21.70;55.80
1091;DHT22;534;48.704;9.122;2023-03-13T12:48:08;21.50;55.90
1091;DHT22;534;48.704;9.122;2023-03-13T12:50:58;21.30;55.50
1091;DHT22;534;48.704;9.122;2023-03-13T12:53:41;21.20;55.80
1091;DHT22;534;48.704;9.122;2023-03-13T12:59:15;21.30;55.10
1091;DHT22;534;48.704;9.122;2023-03-13T13:01:46;21.40;55.00
1091;DHT22;534;48.704;9.122;2023-03-13T13:04:16;21.30;54.50
1091;DHT22;534;48.704;9.122;2023-03-13T13:06:58;21.40;54.80
1091;DHT22;534;48.704;9.122;2023-03-13T13:09:28;21.40;54.30
1091;DHT22;534;48.704;9.122;2023-03-13T13:12:00;21.30;55.50
1091;DHT22;534;48.704;9.122;2023-03-13T13:15:10;21.30;55.30
1091;DHT22;534;48.704;9.122;2023-03-13T13:17:59;21.40;55.00
1091;DHT22;534;48.704;9.122;2023-03-13T13:20:43;21.40;55.20
1091;DHT22;534;48.704;9.122;2023-03-13T13:23:30;21.50;54.60
1091;DHT22;534;48.704;9.122;2023-03-13T13:32:38;21.00;56.60
1091;DHT22;534;48.704;9.122;2023-03-13T13:35:25;21.00;56.10
1091;DHT22;534;48.704;9.122;2023-03-13T13:37:54;21.00;57.10
1091;DHT22;534;48.704;9.122;2023-03-13T13:40:57;21.00;56.80
1091;DHT22;534;48.704;9.122;2023-03-13T13:43:24;21.10;56.90
1091;DHT22;534;48.704;9.122;2023-03-13T13:45:58;21.20;56.00
1091;DHT22;534;48.704;9.122;2023-03-13T13:48:27;21.20;56.50
1091;DHT22;534;48.704;9.122;2023-03-13T13:51:22;21.30;56.30
1091;DHT22;534;48.704;9.122;2023-03-13T13:53:52;21.20;55.30
1091;DHT22;534;48.704;9.122;2023-03-13T13:56:42;21.30;56.20
1091;DHT22;534;48.704;9.122;2023-03-13T13:59:35;21.80;55.50
1091;DHT22;534;48.704;9.122;2023-03-13T14:02:18;22.10;53.70
1091;DHT22;534;48.704;9.122;2023-03-13T14:04:53;22.40;53.30
1091;DHT22;534;48.704;9.122;2023-03-13T14:07:26;22.50;52.50
1091;DHT22;534;48.704;9.122;2023-03-13T14:10:00;22.40;52.10
1091;DHT22;534;48.704;9.122;2023-03-13T14:12:30;22.10;52.10
1091;DHT22;534;48.704;9.122;2023-03-13T14:15:11;22.40;53.20
1091;DHT22;534;48.704;9.122;2023-03-13T14:17:41;22.40;51.20
1091;DHT22;534;48.704;9.122;2023-03-13T14:20:27;22.40;52.10
1091;DHT22;534;48.704;9.122;2023-03-13T14:22:57;22.50;51.60
1091;DHT22;534;48.704;9.122;2023-03-13T14:25:25;22.80;50.90
1091;DHT22;534;48.704;9.122;2023-03-13T14:27:54;23.20;49.30
1091;DHT22;534;48.704;9.122;2023-03-13T14:30:22;24.20;48.40
1091;DHT22;534;48.704;9.122;2023-03-13T14:32:50;25.40;46.30
1091;DHT22;534;48.704;9.122;2023-03-13T14:35:18;25.90;44.60
1091;DHT22;534;48.704;9.122;2023-03-13T14:37:46;26.30;43.80
1091;DHT22;534;48.704;9.122;2023-03-13T14:40:25;26.40;44.20
1091;DHT22;534;48.704;9.122;2023-03-13T14:42:55;26.90;43.10
1091;DHT22;534;48.704;9.122;2023-03-13T14:45:26;27.00;43.00
1091;DHT22;534;48.704;9.122;2023-03-13T14:47:59;28.10;41.80
1091;DHT22;534;48.704;9.122;2023-03-13T14:50:26;28.20;42.00
1091;DHT22;534;48.704;9.122;2023-03-13T14:52:56;28.00;41.80
1091;DHT22;534;48.704;9.122;2023-03-13T14:55:28;27.90;42.40
1091;DHT22;534;48.704;9.122;2023-03-13T14:57:58;28.00;42.10
1091;DHT22;534;48.704;9.122;2023-03-13T15:00:36;27.60;43.10
1091;DHT22;534;48.704;9.122;2023-03-13T15:03:28;27.50;42.40
1091;DHT22;534;48.704;9.122;2023-03-13T15:06:16;26.40;44.10
1091;DHT22;534;48.704;9.122;2023-03-13T15:08:46;26.30;44.20
1091;DHT22;534;48.704;9.122;2023-03-13T15:11:27;26.60;44.30
1091;DHT22;534;48.704;9.122;2023-03-13T15:13:56;26.70;43.50
1091;DHT22;534;48.704;9.122;2023-03-13T15:16:24;26.00;45.30
1091;DHT22;534;48.704;9.122;2023-03-13T15:18:52;26.40;45.20
1091;DHT22;534;48.704;9.122;2023-03-13T15:21:22;26.30;44.50
1091;DHT22;534;48.704;9.122;2023-03-13T15:23:51;25.70;45.70
1091;DHT22;534;48.704;9.122;2023-03-13T15:26:18;24.70;47.20
1091;DHT22;534;48.704;9.122;2023-03-13T15:28:45;24.20;48.10
1091;DHT22;534;48.704;9.122;2023-03-13T15:31:13;24.50;47.90
1091;DHT22;534;48.704;9.122;2023-03-13T15:33:41;24.50;47.80
1091;DHT22;534;48.704;9.122;2023-03-13T15:36:09;24.20;48.40
1091;DHT22;534;48.704;9.122;2023-03-13T15:38:36;23.80;48.60
1091;DHT22;534;48.704;9.122;2023-03-13T15:41:03;23.20;49.80
1091;DHT22;534;48.704;9.122;2023-03-13T15:43:30;22.80;50.80
1091;DHT22;534;48.704;9.122;2023-03-13T15:45:57;22.30;51.70
1091;DHT22;534;48.704;9.122;2023-03-13T15:48:26;22.30;52.20
1091;DHT22;534;48.704;9.122;2023-03-13T15:50:55;22.20;53.00
1091;DHT22;534;48.704;9.122;2023-03-13T15:53:24;22.10;54.00
1091;DHT22;534;48.704;9.122;2023-03-13T15:55:52;22.00;54.30
1091;DHT22;534;48.704;9.122;2023-03-13T15:58:19;21.90;54.60
1091;DHT22;534;48.704;9.122;2023-03-13T16:00:46;21.60;55.40
1091;DHT22;534;48.704;9.122;2023-03-13T16:03:15;21.60;55.60
1091;DHT22;534;48.704;9.122;2023-03-13T16:05:44;21.60;55.60
1091;DHT22;534;48.704;9.122;2023-03-13T16:08:14;21.40;55.80
1091;DHT22;534;48.704;9.122;2023-03-13T16:10:41;21.30;56.00
1091;DHT22;534;48.704;9.122;2023-03-13T16:13:08;21.30;56.30
1091;DHT22;534;48.704;9.122;2023-03-13T16:15:35;21.30;56.30
1091;DHT22;534;48.704;9.122;2023-03-13T16:18:19;21.20;56.80
1091;DHT22;534;48.704;9.122;2023-03-13T16:20:51;21.10;56.80
1091;DHT22;534;48.704;9.122;2023-03-13T16:23:24;21.00;57.60
1091;DHT22;534;48.704;9.122;2023-03-13T16:26:12;21.00;57.50
1091;DHT22;534;48.704;9.122;2023-03-13T16:28:47;20.80;57.50
1091;DHT22;534;48.704;9.122;2023-03-13T16:31:17;20.70;58.10
1091;DHT22;534;48.704;9.122;2023-03-13T16:33:52;20.80;58.00
1091;DHT22;534;48.704;9.122;2023-03-13T16:36:23;20.70;58.00
1091;DHT22;534;48.704;9.122;2023-03-13T16:38:50;20.60;58.00
1091;DHT22;534;48.704;9.122;2023-03-13T16:41:22;20.60;58.10
1091;DHT22;534;48.704;9.122;2023-03-13T16:43:56;20.60;58.20
1091;DHT22;534;48.704;9.122;2023-03-13T16:46:29;20.50;58.00
1091;DHT22;534;48.704;9.122;2023-03-13T16:49:03;20.40;58.60
1091;DHT22;534;48.704;9.122;2023-03-13T16:51:46;20.30;59.00
1091;DHT22;534;48.704;9.122;2023-03-13T16:54:20;20.30;59.20
1091;DHT22;534;48.704;9.122;2023-03-13T16:57:01;20.50;58.70
1091;DHT22;534;48.704;9.122;2023-03-13T16:59:28;20.60;58.30
1091;DHT22;534;48.704;9.122;2023-03-13T17:01:56;20.60;58.60
1091;DHT22;534;48.704;9.122;2023-03-13T17:04:35;20.70;58.00
1091;DHT22;534;48.704;9.122;2023-03-13T17:07:11;20.70;58.10
1091;DHT22;534;48.704;9.122;2023-03-13T17:09:41;20.80;58.10
1091;DHT22;534;48.704;9.122;2023-03-13T17:12:15;20.70;57.70
1091;DHT22;534;48.704;9.122;2023-03-13T17:14:45;20.60;58.30
1091;DHT22;534;48.704;9.122;2023-03-13T17:17:17;20.50;58.10
1091;DHT22;534;48.704;9.122;2023-03-13T17:19:45;20.50;58.70
1091;DHT22;534;48.704;9.122;2023-03-13T17:22:15;20.50;58.80
1091;DHT22;534;48.704;9.122;2023-03-13T17:24:42;20.60;59.20
1091;DHT22;534;48.704;9.122;2023-03-13T17:27:11;20.60;59.50
1091;DHT22;534;48.704;9.122;2023-03-13T17:29:38;20.50;60.00
1091;DHT22;534;48.704;9.122;2023-03-13T17:32:05;20.50;59.90
1091;DHT22;534;48.704;9.122;2023-03-13T17:34:32;20.40;60.30
1091;DHT22;534;48.704;9.122;2023-03-13T17:36:58;20.40;60.70
1091;DHT22;534;48.704;9.122;2023-03-13T17:39:30;20.30;61.20
1091;DHT22;534;48.704;9.122;2023-03-13T17:41:57;20.30;61.30
1091;DHT22;534;48.704;9.122;2023-03-13T17:44:24;20.20;61.50
1091;DHT22;534;48.704;9.122;2023-03-13T17:46:51;20.10;61.90
1091;DHT22;534;48.704;9.122;2023-03-13T17:49:18;20.10;62.10
1091;DHT22;534;48.704;9.122;2023-03-13T17:51:45;20.00;62.20
1091;DHT22;534;48.704;9.122;2023-03-13T17:54:14;19.90;62.10
1091;DHT22;534;48.704;9.122;2023-03-13T17:56:43;19.90;62.50
1091;DHT22;534;48.704;9.122;2023-03-13T17:59:12;19.80;62.90
1091;DHT22;534;48.704;9.122;2023-03-13T18:01:39;19.70;62.90
1091;DHT22;534;48.704;9.122;2023-03-13T18:04:07;19.70;63.10
1091;DHT22;534;48.704;9.122;2023-03-13T18:06:37;19.70;63.10
1091;DHT22;534;48.704;9.122;2023-03-13T18:09:06;19.60;63.40
1091;DHT22;534;48.704;9.122;2023-03-13T18:11:37;19.60;63.70
1091;DHT22;534;48.704;9.122;2023-03-13T18:14:06;19.50;63.70
1091;DHT22;534;48.704;9.122;2023-03-13T18:16:34;19.50;64.10
1091;DHT22;534;48.704;9.122;2023-03-13T18:19:04;19.40;64.30
1091;DHT22;534;48.704;9.122;2023-03-13T18:21:32;19.40;64.00
1091;DHT22;534;48.704;9.122;2023-03-13T18:23:59;19.40;64.50
1091;DHT22;534;48.704;9.122;2023-03-13T18:26:29;19.20;63.90
1091;DHT22;534;48.704;9.122;2023-03-13T18:28:56;19.20;63.90
1091;DHT22;534;48.704;9.122;2023-03-13T18:31:27;19.20;63.70
1091;DHT22;534;48.704;9.122;2023-03-13T18:33:56;19.30;63.40
1091;DHT22;534;48.704;9.122;2023-03-13T18:36:23;19.30;63.70
1091;DHT22;534;48.704;9.122;2023-03-13T18:38:50;19.30;63.60
1091;DHT22;534;48.704;9.122;2023-03-13T18:41:17;19.30;63.50
1091;DHT22;534;48.704;9.122;2023-03-13T18:43:44;19.20;63.20
1091;DHT22;534;48.704;9.122;2023-03-13T18:46:13;19.00;64.40
1091;DHT22;534;48.704;9.122;2023-03-13T18:48:43;18.40;70.00
1091;DHT22;534;48.704;9.122;2023-03-13T18:51:13;17.70;74.80
1091;DHT22;534;48.704;9.122;2023-03-13T18:53:39;17.30;76.30
1091;DHT22;534;48.704;9.122;2023-03-13T18:56:17;17.00;77.20
1091;DHT22;534;48.704;9.122;2023-03-13T18:58:45;16.70;79.70
1091;DHT22;534;48.704;9.122;2023-03-13T19:01:14;16.30;80.30
1091;DHT22;534;48.704;9.122;2023-03-13T19:03:41;16.20;80.10
1091;DHT22;534;48.704;9.122;2023-03-13T19:06:20;16.40;80.40
1091;DHT22;534;48.704;9.122;2023-03-13T19:08:49;16.40;80.30
1091;DHT22;534;48.704;9.122;2023-03-13T19:11:18;16.50;80.60
1091;DHT22;534;48.704;9.122;2023-03-13T19:13:45;16.60;80.60
1091;DHT22;534;48.704;9.122;2023-03-13T19:16:13;16.70;80.20
1091;DHT22;534;48.704;9.122;2023-03-13T19:18:41;16.60;79.50
1091;DHT22;534;48.704;9.122;2023-03-13T19:21:21;16.70;79.50
1091;DHT22;534;48.704;9.122;2023-03-13T19:23:49;16.70;79.50
1091;DHT22;534;48.704;9.122;2023-03-13T19:26:21;16.70;79.60
1091;DHT22;534;48.704;9.122;2023-03-13T19:28:50;16.80;79.60
1091;DHT22;534;48.704;9.122;2023-03-13T19:31:18;16.80;79.50
1091;DHT22;534;48.704;9.122;2023-03-13T19:33:48;16.90;79.50
1091;DHT22;534;48.704;9.122;2023-03-13T19:36:21;16.80;79.70
1091;DHT22;534;48.704;9.122;2023-03-13T19:38:49;16.90;79.70
1091;DHT22;534;48.704;9.122;2023-03-13T19:41:16;16.80;79.80
1091;DHT22;534;48.704;9.122;2023-03-13T19:43:50;16.50;80.70
1091;DHT22;534;48.704;9.122;2023-03-13T19:46:20;16.50;80.70
1091;DHT22;534;48.704;9.122;2023-03-13T19:48:47;16.50;80.60
1091;DHT22;534;48.704;9.122;2023-03-13T19:51:14;16.40;81.10
1091;DHT22;534;48.704;9.122;2023-03-13T19:53:42;16.50;81.00
1091;DHT22;534;48.704;9.122;2023-03-13T19:56:14;16.60;81.00
1091;DHT22;534;48.704;9.122;2023-03-13T19:58:41;16.60;81.20
1091;DHT22;534;48.704;9.122;2023-03-13T20:01:08;16.50;81.10
1091;DHT22;534;48.704;9.122;2023-03-13T20:03:35;16.40;81.50
1091;DHT22;534;48.704;9.122;2023-03-13T20:06:02;16.10;82.10
1091;DHT22;534;48.704;9.122;2023-03-13T20:08:28;15.80;83.40
1091;DHT22;534;48.704;9.122;2023-03-13T20:10:57;15.50;84.40
1091;DHT22;534;48.704;9.122;2023-03-13T20:13:23;15.40;85.20
1091;DHT22;534;48.704;9.122;2023-03-13T20:15:50;15.20;85.70
1091;DHT22;534;48.704;9.122;2023-03-13T20:18:17;15.00;86.20
1091;DHT22;534;48.704;9.122;2023-03-13T20:20:43;14.80;87.00
1091;DHT22;534;48.704;9.122;2023-03-13T20:23:10;14.80;87.20
1091;DHT22;534;48.704;9.122;2023-03-13T20:25:37;14.40;84.10
1091;DHT22;534;48.704;9.122;2023-03-13T20:28:05;13.90;81.40
1091;DHT22;534;48.704;9.122;2023-03-13T20:30:32;13.40;81.70
1091;DHT22;534;48.704;9.122;2023-03-13T20:32:58;13.20;82.40
1091;DHT22;534;48.704;9.122;2023-03-13T20:35:26;13.10;82.60
1091;DHT22;534;48.704;9.122;2023-03-13T20:37:53;12.90;83.10
1091;DHT22;534;48.704;9.122;2023-03-13T20:40:22;12.60;82.80
1091;DHT22;534;48.704;9.122;2023-03-13T20:42:48;12.70;83.20
1091;DHT22;534;48.704;9.122;2023-03-13T20:45:17;12.70;83.40
1091;DHT22;534;48.704;9.122;2023-03-13T20:47:43;12.60;83.30
1091;DHT22;534;48.704;9.122;2023-03-13T20:50:10;12.60;83.10
1091;DHT22;534;48.704;9.122;2023-03-13T20:52:37;12.60;83.20
1091;DHT22;534;48.704;9.122;2023-03-13T20:55:04;12.80;83.10